Terminal Aerodrome Forecast
Issued by NWS

Home | Current Version | Previous Version | Text Only | Print | Product List | Glossary Off
Versions: 1 2 3 4 5 6 7 8 9 10 11 12 13 14 15

561
FTUS42 KMHX 270536
TAFOAJ
TAF
KOAJ 270536Z 2706/2806 20005KT P6SM SKC
     FM271400 21011G19KT P6SM SCT040
     FM280300 19008KT P6SM SCT015 BKN060
      AMD LTD TO CLD VIS AND WIND=

USA.gov is the U.S. government's official web portal to all federal, state and local government web resources and services.